Time;durP1;ratioP1;P1;durP2;ratioP2;P2;SDS_P1;SDS_P2;PMS_P1;PMS_P2;Temp;Humidity;BMP_temperature;BMP_pressure;BME280_temperature;BME280_humidity;BME280_pressure;Samples;Min_cycle;Max_cycle;Signal;HPM_P1;HPM_P2
2024/01/09 00:01:35;;;;;;;9.73;5.27;;;-7.30;99.90;;;-141.84;68.24;18369.09;5040663;28;20237;-57
2024/01/09 00:04:03;;;;;;;8.63;5.27;;;-7.30;99.90;;;-141.84;68.01;18342.69;5044821;28;20220;-59
2024/01/09 00:06:32;;;;;;;9.07;5.70;;;-7.30;99.90;;;-141.84;67.26;18367.06;5048692;28;20628;-57
2024/01/09 00:09:00;;;;;;;9.67;5.53;;;-7.30;99.90;;;-141.84;68.08;18371.13;5044047;28;20221;-56
2024/01/09 00:11:28;;;;;;;10.30;6.33;;;-7.30;99.90;;;-141.84;68.43;18356.91;5042938;28;20284;-60
2024/01/09 00:13:57;;;;;;;9.73;5.80;;;-7.40;99.90;;;-141.84;68.73;18348.78;5047317;28;20225;-54
2024/01/09 00:16:26;;;;;;;9.57;6.10;;;-7.40;99.90;;;-141.84;69.30;18381.28;5052985;28;20227;-57
2024/01/09 00:18:55;;;;;;;9.77;6.07;;;-7.50;99.90;;;-141.84;69.78;18379.25;5053252;28;20201;-55
2024/01/09 00:21:24;;;;;;;9.17;5.67;;;-7.50;99.90;;;-141.84;68.87;18332.53;5052209;28;20314;-55
2024/01/09 00:23:52;;;;;;;10.17;5.90;;;-7.40;99.90;;;-141.84;69.71;18350.81;5052713;28;20628;-55
2024/01/09 00:26:22;;;;;;;10.17;5.97;;;-7.50;99.90;;;-141.84;69.48;18344.72;5052697;28;20227;-57
2024/01/09 00:28:50;;;;;;;9.70;6.13;;;-7.50;99.90;;;-141.84;68.45;18352.84;5052529;28;20235;-53
2024/01/09 00:31:18;;;;;;;9.80;6.27;;;-7.40;99.90;;;-141.84;68.50;18338.63;5052384;28;20716;-55
2024/01/09 00:33:50;;;;;;;9.13;5.87;;;-7.40;99.90;;;-141.84;68.16;18360.97;5053004;28;20654;-57
2024/01/09 00:36:18;;;;;;;9.10;6.07;;;-7.40;99.90;;;-141.84;68.07;18328.47;5052124;28;20235;-58
2024/01/09 00:38:47;;;;;;;9.57;5.87;;;-7.40;99.90;;;-141.84;67.34;18383.31;5051954;28;20225;-55
2024/01/09 00:41:15;;;;;;;9.67;5.93;;;-7.40;99.90;;;-141.84;67.98;18348.78;5052341;28;20224;-58
2024/01/09 00:43:43;;;;;;;11.27;6.53;;;-7.50;99.90;;;-141.84;68.53;18322.38;5052425;28;20222;-51
2024/01/09 00:46:12;;;;;;;10.73;6.17;;;-7.40;99.90;;;-141.84;67.19;18356.91;5053974;28;20295;-52
2024/01/09 00:48:40;;;;;;;11.17;6.17;;;-7.40;99.90;;;-141.84;67.78;18352.84;5054094;28;20284;-54
2024/01/09 00:51:10;;;;;;;11.67;6.37;;;-7.40;99.90;;;-141.84;68.21;18334.56;5053360;28;20248;-56
2024/01/09 00:53:38;;;;;;;12.37;6.57;;;-7.50;99.90;;;-141.84;68.75;18342.69;5053673;28;20308;-55
2024/01/09 00:56:07;;;;;;;9.67;5.70;;;-7.50;99.90;;;-141.84;68.85;18377.22;5053588;28;20230;-57
2024/01/09 00:58:35;;;;;;;9.10;6.27;;;-7.50;99.90;;;-141.84;67.89;18363.00;5053540;28;20565;-54
2024/01/09 01:01:05;;;;;;;12.33;7.13;;;-7.50;99.90;;;-141.84;67.99;18383.31;5054048;28;20209;-55
2024/01/09 01:03:34;;;;;;;9.53;6.00;;;-7.50;99.90;;;-141.84;68.03;18385.34;5053680;28;20214;-55
2024/01/09 01:06:02;;;;;;;9.87;6.00;;;-7.50;99.90;;;-141.84;68.35;18358.94;5053450;28;20247;-55
2024/01/09 01:08:33;;;;;;;9.83;6.10;;;-7.50;99.90;;;-141.84;68.84;18346.75;5049437;28;20724;-56
2024/01/09 01:11:02;;;;;;;12.70;6.00;;;-7.50;99.90;;;-141.84;68.57;18316.28;5045821;28;20687;-56
2024/01/09 01:13:30;;;;;;;8.30;5.83;;;-7.50;99.90;;;-141.84;68.57;18375.19;5053363;28;20773;-55
2024/01/09 01:15:58;;;;;;;7.83;5.47;;;-7.50;99.90;;;-141.84;69.27;18371.13;5053919;28;20226;-55
2024/01/09 01:18:26;;;;;;;10.63;6.67;;;-7.60;99.90;;;-141.84;69.80;18330.50;5053000;28;20308;-57
2024/01/09 01:20:55;;;;;;;10.83;6.37;;;-7.60;99.90;;;-141.84;70.37;18338.63;5052903;28;20305;-55
2024/01/09 01:23:23;;;;;;;9.43;6.03;;;-7.60;99.90;;;-141.84;70.73;18369.09;5052920;28;20740;-59
2024/01/09 01:25:53;;;;;;;10.50;6.33;;;-7.70;99.90;;;-141.84;70.34;18371.13;5052249;28;20224;-55
2024/01/09 01:28:21;;;;;;;10.93;6.37;;;-7.70;99.90;;;-141.84;70.30;18356.91;5053006;28;20284;-55
2024/01/09 01:30:49;;;;;;;11.23;6.47;;;-7.70;99.90;;;-141.84;69.60;18338.63;5053522;28;20268;-57
2024/01/09 01:33:17;;;;;;;13.43;6.87;;;-7.70;99.90;;;-141.84;70.43;18381.28;5052843;28;20226;-59
2024/01/09 01:35:46;;;;;;;9.53;6.23;;;-7.70;99.90;;;-141.84;70.76;18358.94;5052732;28;20230;-57
2024/01/09 01:38:14;;;;;;;11.97;6.27;;;-7.80;99.90;;;-141.84;70.89;18338.63;5052656;28;20229;-56
2024/01/09 01:40:43;;;;;;;9.97;6.23;;;-7.90;99.90;;;-141.84;71.08;18389.41;5052869;28;20234;-56
2024/01/09 01:43:12;;;;;;;10.97;6.73;;;-7.90;99.90;;;-141.84;71.27;18354.88;5053306;28;20282;-58
2024/01/09 01:45:40;;;;;;;10.40;6.03;;;-7.90;99.90;;;-141.84;71.11;18365.03;5045371;28;20197;-59
2024/01/09 01:48:11;;;;;;;12.23;6.40;;;-7.90;99.90;;;-141.84;70.69;18383.31;5052869;28;20305;-57
2024/01/09 01:50:41;;;;;;;13.10;6.43;;;-7.90;99.90;;;-141.84;71.56;18387.38;5052990;28;20233;-57
2024/01/09 01:53:10;;;;;;;11.37;6.20;;;-8.00;99.90;;;-141.84;72.55;18358.94;5052987;28;20606;-57
2024/01/09 01:55:38;;;;;;;12.00;6.60;;;-8.00;99.90;;;-141.84;71.99;18399.56;5052459;28;20619;-57
2024/01/09 01:58:07;;;;;;;12.80;6.77;;;-8.00;99.90;;;-141.84;72.46;18360.97;5050716;28;20293;-58
2024/01/09 02:00:37;;;;;;;10.20;7.03;;;-8.00;99.90;;;-141.84;72.33;18375.19;5053218;28;20201;-56
2024/01/09 02:03:07;;;;;;;12.77;6.83;;;-8.00;99.90;;;-141.84;72.38;18373.16;5052327;28;20232;-56
2024/01/09 02:05:37;;;;;;;11.57;6.90;;;-8.00;99.90;;;-141.84;72.82;18387.38;5044461;28;20253;-56
2024/01/09 02:08:08;;;;;;;12.07;7.07;;;-8.00;99.90;;;-141.84;73.11;18391.44;5052331;28;20296;-57
2024/01/09 02:10:37;;;;;;;11.83;6.40;;;-8.10;99.90;;;-141.84;73.31;18371.13;5050568;28;20253;-55
2024/01/09 02:13:05;;;;;;;12.57;7.10;;;-8.10;99.90;;;-141.84;72.73;18391.44;5052346;28;20292;-57
2024/01/09 02:15:33;;;;;;;14.43;7.50;;;-8.10;99.90;;;-141.84;73.01;18371.13;5052473;28;20279;-57
2024/01/09 02:18:04;;;;;;;12.47;6.57;;;-8.10;99.90;;;-141.84;73.22;18391.44;5051798;28;20286;-56
2024/01/09 02:20:32;;;;;;;11.43;6.70;;;-8.20;99.90;;;-141.84;72.38;18360.97;5052032;28;20642;-55
2024/01/09 02:23:00;;;;;;;10.80;6.60;;;-8.10;99.90;;;-141.84;71.87;18391.44;5051864;28;20228;-57
2024/01/09 02:25:29;;;;;;;11.03;6.83;;;-8.10;99.90;;;-141.84;71.15;18358.94;5051836;28;20229;-55
2024/01/09 02:28:08;;;;;;;13.73;7.27;;;-8.00;99.90;;;-141.84;71.84;18336.59;5052696;28;20523;-57
2024/01/09 02:30:38;;;;;;;11.03;6.87;;;-8.10;99.90;;;-141.84;73.13;18417.84;5048089;28;20213;-56
2024/01/09 02:33:09;;;;;;;12.03;6.90;;;-8.20;99.90;;;-141.84;74.55;18407.69;5051718;28;20221;-58
2024/01/09 02:35:38;;;;;;;11.80;7.23;;;-8.30;99.90;;;-141.84;74.86;18425.97;5051518;28;20233;-57
2024/01/09 02:38:06;;;;;;;11.80;7.10;;;-8.30;99.90;;;-141.84;75.00;18399.56;5051148;28;20225;-53
2024/01/09 02:40:34;;;;;;;12.77;7.27;;;-8.30;99.90;;;-141.84;74.17;18385.34;5051637;28;20247;-56
2024/01/09 02:43:03;;;;;;;14.20;7.07;;;-8.30;99.90;;;-141.84;73.98;18358.94;5052248;28;20581;-57
2024/01/09 02:45:31;;;;;;;12.17;7.37;;;-8.20;99.90;;;-141.84;73.70;18375.19;5051406;28;20221;-57
2024/01/09 02:48:01;;;;;;;12.80;7.17;;;-8.20;99.90;;;-141.84;72.47;18369.09;5051428;28;20305;-59
2024/01/09 02:50:29;;;;;;;11.63;7.00;;;-8.10;99.90;;;-141.84;70.17;18336.59;5051326;28;20251;-54
2024/01/09 02:52:58;;;;;;;12.27;7.07;;;-7.90;99.90;;;-141.84;69.02;18352.84;5051235;28;20225;-58
2024/01/09 02:55:26;;;;;;;9.87;6.77;;;-7.80;99.90;;;-141.84;70.61;18373.16;5051325;28;20294;-56
2024/01/09 02:57:54;;;;;;;11.60;7.47;;;-7.90;99.90;;;-141.84;70.85;18342.69;5051900;28;20204;-53
2024/01/09 03:00:22;;;;;;;14.63;7.37;;;-7.90;99.90;;;-141.84;71.28;18383.31;5038749;28;20303;-56
2024/01/09 03:02:50;;;;;;;14.53;7.47;;;-8.00;99.90;;;-141.84;72.27;18363.00;5051151;28;20247;-56
2024/01/09 03:05:21;;;;;;;9.13;6.83;;;-8.10;99.90;;;-141.84;72.52;18399.56;5049946;28;20714;-54
2024/01/09 03:07:49;;;;;;;12.87;7.53;;;-8.10;99.90;;;-141.84;72.98;18385.34;5051323;28;20620;-57
2024/01/09 03:10:17;;;;;;;9.97;6.73;;;-8.20;99.90;;;-141.84;73.83;18393.47;5050810;28;20199;-61
2024/01/09 03:12:45;;;;;;;12.23;7.87;;;-8.30;99.90;;;-141.84;74.40;18387.38;5051528;28;20228;-53
2024/01/09 03:15:14;;;;;;;12.80;7.50;;;-8.30;99.90;;;-141.84;73.85;18375.19;5050792;28;20234;-57
2024/01/09 03:17:42;;;;;;;10.90;7.27;;;-8.30;99.90;;;-141.84;73.01;18352.84;5050851;28;20229;-56
2024/01/09 03:20:11;;;;;;;15.57;7.20;;;-8.20;99.90;;;-141.84;72.46;18369.09;5050488;28;20712;-55
2024/01/09 03:22:41;;;;;;;18.43;8.00;;;-8.20;99.90;;;-141.84;71.77;18332.53;5044430;28;20268;-57
2024/01/09 03:25:09;;;;;;;12.20;6.93;;;-8.10;99.90;;;-141.84;71.23;18338.63;5050779;28;20595;-56
2024/01/09 03:27:37;;;;;;;12.77;7.83;;;-8.00;99.90;;;-141.84;71.63;18365.03;5051494;28;20287;-52
2024/01/09 03:30:08;;;;;;;15.33;7.73;;;-8.00;99.90;;;-141.84;72.29;18367.06;5050867;28;20213;-54
2024/01/09 03:32:36;;;;;;;13.47;7.50;;;-8.00;99.90;;;-141.84;72.67;18379.25;5050733;28;20291;-54
2024/01/09 03:35:05;;;;;;;14.47;7.53;;;-8.10;99.90;;;-141.84;72.53;18379.25;5050812;28;20321;-56
2024/01/09 03:37:33;;;;;;;12.63;7.80;;;-8.10;99.90;;;-141.84;73.17;18346.75;5050842;28;20234;-57
2024/01/09 03:40:03;;;;;;;13.47;7.83;;;-8.10;99.90;;;-141.84;72.46;18363.00;5051161;28;20296;-56
2024/01/09 03:42:31;;;;;;;11.53;7.00;;;-8.00;99.90;;;-141.84;70.71;18387.38;5050914;28;20282;-54
2024/01/09 03:44:59;;;;;;;14.97;7.47;;;-7.90;99.90;;;-141.84;70.70;18344.72;5050761;28;20740;-56
2024/01/09 03:47:28;;;;;;;14.83;7.90;;;-8.00;99.90;;;-141.84;71.34;18348.78;5050163;28;20240;-57
2024/01/09 03:49:56;;;;;;;15.93;7.93;;;-7.90;99.90;;;-141.84;71.10;18348.78;5049816;28;20222;-57
2024/01/09 03:52:25;;;;;;;14.20;7.53;;;-7.90;99.90;;;-141.84;70.94;18356.91;5050386;28;20220;-55
2024/01/09 03:54:53;;;;;;;14.40;8.20;;;-7.90;99.90;;;-141.84;71.92;18320.34;5051120;28;20279;-60
2024/01/09 03:57:23;;;;;;;14.30;8.23;;;-8.00;99.90;;;-141.84;72.06;18367.06;5050087;28;20256;-58
2024/01/09 03:59:51;;;;;;;15.10;8.23;;;-8.10;99.90;;;-141.84;73.29;18377.22;5050381;28;20237;-60
2024/01/09 04:02:19;;;;;;;13.27;7.50;;;-8.20;99.90;;;-141.84;73.29;18356.91;5050067;28;20252;-60
2024/01/09 04:04:47;;;;;;;12.07;7.60;;;-8.20;99.90;;;-141.84;73.17;18395.50;5050166;28;20223;-60
2024/01/09 04:07:16;;;;;;;15.93;8.47;;;-8.20;99.90;;;-141.84;74.05;18417.84;5050040;28;20262;-60
2024/01/09 04:09:44;;;;;;;14.17;8.30;;;-8.40;99.90;;;-141.84;75.00;18369.09;5051045;28;20258;-59
2024/01/09 04:12:12;;;;;;;14.03;7.23;;;-8.40;99.90;;;-141.84;75.65;18401.59;5050282;28;20255;-59
2024/01/09 04:14:42;;;;;;;15.67;8.70;;;-8.50;99.90;;;-141.84;76.80;18387.38;5045607;28;20221;-58
2024/01/09 04:17:11;;;;;;;13.37;8.00;;;-8.50;99.90;;;-141.84;76.21;18387.38;5049848;28;20227;-59
2024/01/09 04:19:40;;;;;;;16.03;8.80;;;-8.50;99.90;;;-141.84;76.49;18373.16;5050169;28;20290;-60
2024/01/09 04:22:08;;;;;;;15.07;7.73;;;-8.50;99.90;;;-141.84;75.93;18419.88;5048514;28;20650;-59
2024/01/09 04:24:37;;;;;;;13.10;8.33;;;-8.50;99.90;;;-141.84;76.50;18419.88;5050435;28;20660;-58
2024/01/09 04:27:05;;;;;;;15.67;8.80;;;-8.60;99.90;;;-141.84;76.86;18383.31;5049977;28;20304;-60
2024/01/09 04:29:34;;;;;;;19.90;8.67;;;-8.60;99.90;;;-141.84;76.80;18401.59;5047648;28;20222;-59
2024/01/09 04:32:04;;;;;;;14.73;8.83;;;-8.60;99.90;;;-141.84;77.16;18405.66;5049415;28;20302;-59
2024/01/09 04:34:32;;;;;;;16.67;8.80;;;-8.70;99.90;;;-141.84;77.34;18381.28;5046803;28;20237;-59
2024/01/09 04:37:00;;;;;;;13.60;8.37;;;-8.80;99.90;;;-141.84;77.52;18413.78;5050118;28;20222;-59
2024/01/09 04:39:29;;;;;;;17.17;8.97;;;-8.80;99.90;;;-141.84;78.17;18385.34;5049871;28;20263;-59
2024/01/09 04:41:57;;;;;;;15.93;9.07;;;-8.80;99.90;;;-141.84;78.11;18383.31;5049876;28;20306;-60
2024/01/09 04:44:26;;;;;;;15.47;8.87;;;-8.80;99.90;;;-141.84;78.10;18415.81;5049719;28;20647;-60
2024/01/09 04:46:55;;;;;;;15.03;8.97;;;-8.90;99.90;;;-141.84;78.33;18395.50;5049920;28;20283;-55
2024/01/09 04:49:25;;;;;;;16.40;9.37;;;-8.80;99.90;;;-141.84;78.66;18399.56;5049726;28;20223;-53
2024/01/09 04:51:53;;;;;;;14.03;8.73;;;-8.80;99.90;;;-141.84;78.77;18383.31;5042303;28;20195;-59
2024/01/09 04:54:21;;;;;;;15.67;8.83;;;-8.80;99.90;;;-141.84;77.92;18371.13;5049772;28;20271;-53
2024/01/09 04:56:49;;;;;;;17.83;9.73;;;-8.70;99.90;;;-141.84;77.81;18411.75;5049506;28;20852;-56
2024/01/09 04:59:18;;;;;;;16.30;8.77;;;-8.70;99.90;;;-141.84;78.31;18383.31;5049838;28;20226;-56
2024/01/09 05:01:50;;;;;;;19.33;9.63;;;-8.80;99.90;;;-141.84;78.41;18383.31;5052146;28;20579;-57
2024/01/09 05:04:18;;;;;;;16.70;9.43;;;-8.80;99.90;;;-141.84;78.55;18363.00;5053321;28;20209;-54
2024/01/09 05:06:49;;;;;;;15.97;9.57;;;-8.80;99.90;;;-141.84;77.88;18375.19;5053588;28;20194;-58
2024/01/09 05:09:17;;;;;;;16.27;10.00;;;-8.80;99.90;;;-141.84;78.76;18371.13;5046803;28;20228;-57
2024/01/09 05:11:46;;;;;;;15.43;9.00;;;-8.80;99.90;;;-141.84;79.24;18407.69;5053225;28;20228;-57
2024/01/09 05:14:14;;;;;;;15.87;9.13;;;-8.80;99.90;;;-141.84;79.29;18395.50;5053322;28;20685;-56
2024/01/09 05:16:42;;;;;;;14.77;8.43;;;-8.80;99.90;;;-141.84;78.92;18383.31;5053364;28;20240;-53
2024/01/09 05:19:10;;;;;;;18.90;8.90;;;-8.90;99.90;;;-141.84;78.60;18397.53;5044941;28;20259;-51
2024/01/09 05:21:39;;;;;;;18.97;10.13;;;-8.90;99.90;;;-141.84;78.87;18387.38;5053574;28;20207;-56
2024/01/09 05:24:08;;;;;;;18.63;10.10;;;-8.90;99.90;;;-141.84;79.47;18395.50;5052572;28;20251;-55
2024/01/09 05:26:37;;;;;;;18.03;10.40;;;-8.90;99.90;;;-141.84;79.10;18369.09;5052857;28;20689;-53
2024/01/09 05:29:05;;;;;;;16.53;9.67;;;-8.90;99.90;;;-141.84;77.66;18356.91;5052890;28;20220;-56
2024/01/09 05:31:33;;;;;;;19.00;10.37;;;-8.80;99.90;;;-141.84;77.19;18348.78;5051372;28;20780;-54
2024/01/09 05:34:01;;;;;;;18.53;9.77;;;-8.80;99.90;;;-141.84;76.39;18360.97;5053472;28;20189;-54
2024/01/09 05:36:30;;;;;;;18.00;10.67;;;-8.80;99.90;;;-141.84;75.98;18342.69;5052580;28;20316;-56
2024/01/09 05:38:58;;;;;;;19.20;10.33;;;-8.80;99.90;;;-141.84;75.31;18324.41;5052561;28;20249;-54
2024/01/09 05:41:28;;;;;;;17.97;10.23;;;-8.80;99.90;;;-141.84;75.54;18318.31;5052766;28;20821;-54
2024/01/09 05:43:56;;;;;;;17.90;10.30;;;-8.80;99.90;;;-141.84;76.12;18385.34;5052492;28;20233;-55
2024/01/09 05:46:25;;;;;;;21.20;10.83;;;-8.90;99.90;;;-141.84;75.95;18381.28;5052505;28;20200;-54
2024/01/09 05:48:53;;;;;;;23.10;11.70;;;-8.90;99.90;;;-141.84;76.42;18348.78;5052578;28;20663;-55
2024/01/09 05:51:22;;;;;;;20.53;11.83;;;-8.90;99.90;;;-141.84;76.58;18387.38;5052448;28;20239;-57
2024/01/09 05:53:50;;;;;;;19.63;11.47;;;-8.90;99.90;;;-141.84;76.37;18350.81;5052357;28;20312;-52
2024/01/09 05:56:19;;;;;;;19.80;11.20;;;-8.90;99.90;;;-141.84;75.37;18358.94;5052636;28;20244;-53
2024/01/09 05:58:49;;;;;;;22.60;11.57;;;-8.90;99.90;;;-141.84;75.74;18348.78;5052466;28;20224;-56
2024/01/09 06:01:17;;;;;;;21.83;11.90;;;-8.90;99.90;;;-141.84;75.96;18338.63;5045094;28;20255;-58
2024/01/09 06:03:45;;;;;;;21.43;11.53;;;-9.00;99.90;;;-141.84;76.21;18354.88;5053028;28;20265;-57
2024/01/09 06:06:14;;;;;;;22.27;12.03;;;-8.90;99.90;;;-141.84;76.16;18363.00;5053109;28;20322;-59
2024/01/09 06:08:42;;;;;;;23.17;11.60;;;-9.00;99.90;;;-141.84;76.48;18369.09;5052132;28;20713;-58
2024/01/09 06:11:10;;;;;;;22.20;11.83;;;-9.00;99.90;;;-141.84;76.83;18346.75;5052251;28;20221;-58
2024/01/09 06:13:39;;;;;;;23.07;11.93;;;-9.00;99.90;;;-141.84;76.55;18358.94;5051367;28;20225;-58
2024/01/09 06:16:09;;;;;;;21.50;12.33;;;-9.00;99.90;;;-141.84;77.18;18367.06;5052577;28;20288;-61
2024/01/09 06:18:37;;;;;;;20.73;11.93;;;-9.00;99.90;;;-141.84;77.07;18375.19;5052762;28;20197;-58
2024/01/09 06:21:06;;;;;;;22.80;12.03;;;-9.10;99.90;;;-141.84;77.29;18365.03;5051558;28;20217;-58
2024/01/09 06:23:34;;;;;;;22.43;11.83;;;-9.10;99.90;;;-141.84;77.28;18373.16;5051982;28;20228;-58
2024/01/09 06:26:02;;;;;;;21.33;11.70;;;-9.10;99.90;;;-141.84;77.24;18373.16;5052121;28;20224;-57
2024/01/09 06:28:31;;;;;;;24.40;12.40;;;-9.10;99.90;;;-141.84;77.62;18369.09;5051770;28;20699;-57
2024/01/09 06:30:59;;;;;;;17.57;11.07;;;-9.10;99.90;;;-141.84;77.83;18367.06;5051042;28;20194;-61
2024/01/09 06:33:29;;;;;;;22.67;11.70;;;-9.10;99.90;;;-141.84;78.77;18375.19;5051563;28;20218;-59
2024/01/09 06:35:57;;;;;;;21.87;11.60;;;-9.00;99.90;;;-141.84;78.09;18371.13;5046732;28;20244;-57
2024/01/09 06:38:25;;;;;;;22.67;11.90;;;-9.00;99.90;;;-141.84;77.75;18365.03;5051806;28;20217;-59
2024/01/09 06:40:54;;;;;;;26.80;11.53;;;-9.00;99.90;;;-141.84;77.01;18342.69;5051300;28;20240;-58
2024/01/09 06:43:22;;;;;;;19.53;10.57;;;-8.90;99.90;;;-141.84;77.04;18350.81;5051716;28;20285;-59
2024/01/09 06:45:50;;;;;;;21.80;11.60;;;-9.00;99.90;;;-141.84;77.21;18338.63;5051830;28;20575;-59
2024/01/09 06:48:18;;;;;;;27.43;12.33;;;-9.10;99.90;;;-141.84;77.64;18326.44;5050929;28;20221;-59
2024/01/09 06:50:48;;;;;;;22.67;11.30;;;-9.10;99.90;;;-141.84;77.59;18356.91;5051464;28;20295;-59
2024/01/09 06:53:17;;;;;;;19.27;11.30;;;-9.10;99.90;;;-141.84;77.60;18363.00;5051283;28;20237;-58
2024/01/09 06:55:45;;;;;;;19.27;11.53;;;-9.20;99.90;;;-141.84;77.97;18381.28;5051251;28;20249;-59
2024/01/09 06:58:16;;;;;;;24.27;13.10;;;-9.20;99.90;;;-141.84;78.15;18367.06;5047266;28;20204;-59
2024/01/09 07:00:45;;;;;;;22.27;12.07;;;-9.20;99.90;;;-141.84;77.48;18383.31;5052000;28;20194;-59
2024/01/09 07:03:13;;;;;;;23.53;12.47;;;-9.10;99.90;;;-141.84;78.43;18383.31;5050896;28;20773;-59
2024/01/09 07:05:41;;;;;;;25.70;12.90;;;-9.10;99.90;;;-141.84;79.02;18375.19;5048991;28;20256;-59
2024/01/09 07:08:12;;;;;;;24.77;12.43;;;;;;;-141.84;78.76;18371.13;5048613;28;20278;-59
2024/01/09 07:10:40;;;;;;;24.60;12.27;;;-9.20;99.90;;;-141.84;78.94;18371.13;5043047;28;20221;-59
2024/01/09 07:13:08;;;;;;;23.57;11.57;;;-9.20;99.90;;;-141.84;79.65;18411.75;5051311;28;20287;-59
2024/01/09 07:15:37;;;;;;;23.43;11.87;;;-9.20;99.90;;;-141.84;79.49;18395.50;5051357;28;20202;-57
2024/01/09 07:18:05;;;;;;;21.90;13.10;;;-9.20;99.90;;;-141.84;79.92;18395.50;5050873;28;20224;-58
2024/01/09 07:20:34;;;;;;;22.47;12.20;;;-9.30;99.90;;;-141.84;79.80;18363.00;5050798;28;20269;-58
2024/01/09 07:23:02;;;;;;;24.23;12.33;;;-9.30;99.90;;;-141.84;79.68;18391.44;5045480;28;20611;-59
2024/01/09 07:25:45;;;;;;;25.80;13.33;;;-9.30;99.90;;;-141.84;80.19;18379.25;5042125;28;20347;-60
2024/01/09 07:28:13;;;;;;;21.50;12.83;;;-9.30;99.90;;;-141.84;80.14;18405.66;5049139;28;20289;-59
2024/01/09 07:30:42;;;;;;;25.57;12.80;;;-9.30;99.90;;;-141.84;80.14;18373.16;5051053;28;20197;-61
2024/01/09 07:33:10;;;;;;;25.20;13.97;;;-9.20;99.90;;;-141.84;79.63;18360.97;5050461;28;20598;-61
2024/01/09 07:35:38;;;;;;;23.87;12.23;;;-9.30;99.90;;;-141.84;79.64;18385.34;5043558;28;20874;-61
2024/01/09 07:38:07;;;;;;;29.57;13.17;;;-9.20;99.90;;;-141.84;79.47;18393.47;5050311;28;20223;-61
2024/01/09 07:40:35;;;;;;;23.47;11.97;;;-9.20;99.90;;;-141.84;79.16;18350.81;5050269;28;20263;-60
2024/01/09 07:43:05;;;;;;;24.90;13.50;;;-9.20;99.90;;;-141.84;78.20;18350.81;5050715;28;20236;-60
2024/01/09 07:45:33;;;;;;;21.43;12.27;;;-9.10;99.90;;;-141.84;77.67;18373.16;5046320;28;20252;-60
2024/01/09 07:48:03;;;;;;;25.33;13.00;;;-9.10;99.90;;;-141.84;77.48;18338.63;5048403;28;20303;-62
2024/01/09 07:50:31;;;;;;;24.87;12.63;;;-9.10;99.90;;;-141.84;78.13;18350.81;5050126;28;20222;-59
2024/01/09 07:53:02;;;;;;;24.90;13.07;;;-9.10;99.90;;;-141.84;77.78;18348.78;5046724;28;20242;-59
2024/01/09 07:55:33;;;;;;;24.40;12.60;;;-9.10;99.90;;;-141.84;77.09;18334.56;5050412;28;20289;-59
2024/01/09 07:58:01;;;;;;;28.67;14.40;;;-9.10;99.90;;;-141.84;76.70;18365.03;5051062;28;20277;-61
2024/01/09 08:00:32;;;;;;;25.23;14.07;;;-9.00;99.90;;;-141.84;76.40;18375.19;5050208;28;20246;-59
2024/01/09 08:03:04;;;;;;;27.53;14.17;;;-8.90;99.90;;;-141.84;76.13;18330.50;5050075;28;20222;-60
2024/01/09 08:05:33;;;;;;;28.10;14.73;;;-9.00;99.90;;;-141.84;77.11;18324.41;5043654;28;20723;-60
2024/01/09 08:08:02;;;;;;;25.63;14.10;;;-9.00;99.90;;;-141.84;77.77;18356.91;5050121;28;20231;-58
2024/01/09 08:10:30;;;;;;;28.27;14.93;;;-8.90;99.90;;;-141.84;77.32;18340.66;5050037;28;20236;-60
2024/01/09 08:12:58;;;;;;;28.43;14.23;;;-8.80;99.90;;;-141.84;75.76;18350.81;5051041;28;20203;-60
2024/01/09 08:15:27;;;;;;;28.37;14.33;;;-8.70;99.90;;;-141.84;73.59;18304.09;5050184;28;20225;-59
2024/01/09 08:17:56;;;;;;;27.67;14.80;;;-8.60;99.90;;;-141.84;74.02;18326.44;5050043;28;20705;-61
2024/01/09 08:20:25;;;;;;;26.53;14.97;;;-8.70;99.90;;;-141.84;75.24;18306.13;5050197;28;20602;-63
2024/01/09 08:22:53;;;;;;;27.43;14.00;;;-8.60;99.90;;;-141.84;73.69;18283.78;5050443;28;20233;-60
2024/01/09 08:25:21;;;;;;;27.77;14.77;;;-8.50;99.90;;;-141.84;73.32;18312.22;5042234;28;20278;-58
2024/01/09 08:27:49;;;;;;;28.80;14.97;;;-8.60;99.90;;;-141.84;72.66;18293.94;5049087;28;20204;-58
2024/01/09 08:30:18;;;;;;;26.00;14.57;;;-8.50;99.90;;;-141.84;73.49;18348.78;5047115;28;20225;-59
2024/01/09 08:32:46;;;;;;;24.10;13.47;;;-8.50;99.90;;;-141.84;74.38;18310.19;5049818;28;20228;-60
2024/01/09 08:35:16;;;;;;;27.67;14.33;;;-8.50;99.90;;;-141.84;73.56;18316.28;5047844;28;20602;-60
2024/01/09 08:37:45;;;;;;;25.93;15.50;;;-8.40;99.90;;;-141.84;72.70;18322.38;5048772;28;20321;-60
2024/01/09 08:40:14;;;;;;;27.03;15.77;;;-8.40;99.90;;;-141.84;72.29;18334.56;5049022;28;20236;-58
2024/01/09 08:42:42;;;;;;;25.53;14.23;;;-8.40;99.90;;;-141.84;72.43;18310.19;5054327;28;20247;-59
2024/01/09 08:45:10;;;;;;;30.47;15.40;;;-8.30;99.90;;;-141.84;72.48;18318.31;5052847;28;20224;-59
2024/01/09 08:47:39;;;;;;;31.20;15.47;;;-8.30;99.90;;;-141.84;73.16;18367.06;5053126;28;20303;-59
2024/01/09 08:50:07;;;;;;;32.50;14.93;;;-8.30;99.90;;;-141.84;72.95;18316.28;5053723;28;20234;-60
2024/01/09 08:52:37;;;;;;;27.07;15.70;;;-8.20;99.90;;;-141.84;72.74;18314.25;5052607;28;20228;-60
2024/01/09 08:55:07;;;;;;;30.47;15.93;;;-8.00;99.90;;;-141.84;72.03;18249.25;5054243;28;20276;-59
2024/01/09 08:57:35;;;;;;;31.30;16.27;;;-7.90;99.90;;;-141.84;70.54;18322.38;5053848;28;20217;-60
2024/01/09 09:00:04;;;;;;;30.17;16.13;;;-7.80;99.90;;;-141.84;71.00;18300.03;5045684;28;20226;-59
2024/01/09 09:02:33;;;;;;;30.03;15.07;;;-7.50;99.90;;;-141.84;67.59;18308.16;5053350;28;20268;-60
2024/01/09 09:05:01;;;;;;;32.67;16.60;;;-7.20;99.90;;;-141.84;66.39;18330.50;5053037;28;20233;-59
2024/01/09 09:07:29;;;;;;;25.70;14.70;;;-7.10;99.90;;;-141.84;66.00;18320.34;5053404;28;20252;-58
2024/01/09 09:09:59;;;;;;;30.03;16.57;;;-7.10;99.90;;;-141.84;65.33;18295.97;5053631;28;20209;-59
2024/01/09 09:12:28;;;;;;;28.23;16.27;;;-7.10;99.90;;;-141.84;65.88;18318.31;5052686;28;20225;-60
2024/01/09 09:14:56;;;;;;;26.47;15.20;;;-7.10;99.90;;;-141.84;65.63;18330.50;5052968;28;20215;-60
2024/01/09 09:17:25;;;;;;;25.30;15.27;;;-7.00;99.90;;;-141.84;65.82;18320.34;5052846;28;20757;-60
2024/01/09 09:19:53;;;;;;;30.30;15.53;;;-7.20;99.90;;;-141.84;66.18;18304.09;5053040;28;20236;-60
2024/01/09 09:22:23;;;;;;;27.03;14.87;;;-7.10;99.90;;;-141.84;65.74;18326.44;5052865;28;20732;-59
2024/01/09 09:24:52;;;;;;;28.30;16.27;;;-7.20;99.90;;;-141.84;66.38;18350.81;5053846;28;20195;-60
2024/01/09 09:27:21;;;;;;;29.23;16.00;;;-7.30;99.90;;;-141.84;66.28;18332.53;5053004;28;20334;-60
2024/01/09 09:29:52;;;;;;;30.80;16.50;;;-7.20;99.90;;;-141.84;66.02;18324.41;5053041;28;20326;-61
2024/01/09 09:32:21;;;;;;;31.13;16.47;;;-7.20;99.90;;;-141.84;65.18;18328.47;5052661;28;20228;-60
2024/01/09 09:34:49;;;;;;;27.33;16.47;;;-7.10;99.90;;;-141.84;65.43;18360.97;5051225;28;20225;-59
2024/01/09 09:37:20;;;;;;;30.53;16.77;;;-7.00;99.90;;;-141.84;65.30;18330.50;5052789;28;20591;-59
2024/01/09 09:39:48;;;;;;;27.00;16.07;;;-6.80;99.90;;;-141.84;64.62;18330.50;5053388;28;20201;-59
2024/01/09 09:42:16;;;;;;;30.63;16.03;;;-6.80;99.90;;;-141.84;64.74;18320.34;5052520;28;20233;-60
2024/01/09 09:44:51;;;;;;;27.57;15.77;;;-6.70;99.90;;;-141.84;63.61;18314.25;5052826;28;20259;-60
2024/01/09 09:47:21;;;;;;;32.83;17.40;;;-6.60;99.90;;;-141.84;63.03;18308.16;5051242;28;20238;-60
2024/01/09 09:49:53;;;;;;;28.57;15.50;;;-6.60;99.90;;;-141.84;63.27;18360.97;5052683;28;20230;-60
2024/01/09 09:52:25;;;;;;;29.23;16.20;;;-6.60;99.90;;;-141.84;63.16;18326.44;5052393;28;20670;-60
2024/01/09 09:54:55;;;;;;;28.53;16.00;;;-6.60;99.90;;;-141.84;63.45;18322.38;5052974;28;20690;-60
2024/01/09 09:57:23;;;;;;;32.97;17.43;;;-6.50;99.90;;;-141.84;63.51;18348.78;5052135;28;20271;-61
2024/01/09 09:59:53;;;;;;;33.00;16.10;;;-6.40;99.90;;;-141.84;62.97;18340.66;5052137;28;20234;-59
2024/01/09 10:02:25;;;;;;;28.37;16.33;;;-6.30;99.90;;;-141.84;61.41;18316.28;5052218;28;20224;-60
2024/01/09 10:04:57;;;;;;;28.67;15.93;;;-6.20;99.90;;;-141.84;59.89;18320.34;5051775;28;20314;-59